createdAt,value
2023-01-26T00:00:17.307Z,8.10
2023-01-26T00:02:47.460Z,8.00
2023-01-26T00:05:16.324Z,8.00
2023-01-26T00:07:45.658Z,8.00
2023-01-26T00:10:15.267Z,8.00
2023-01-26T00:12:43.922Z,8.10
2023-01-26T00:15:12.810Z,8.20
2023-01-26T00:17:41.455Z,8.20
2023-01-26T00:20:15.452Z,8.30
2023-01-26T00:22:44.490Z,8.40
2023-01-26T00:25:13.349Z,8.40
2023-01-26T00:27:42.068Z,8.40
2023-01-26T00:30:14.135Z,8.40
2023-01-26T00:32:45.717Z,8.20
2023-01-26T00:35:15.942Z,8.20
2023-01-26T00:37:44.824Z,8.30
2023-01-26T00:40:13.933Z,8.30
2023-01-26T00:42:42.732Z,8.40
2023-01-26T00:45:11.807Z,8.20
2023-01-26T00:47:40.578Z,8.20
2023-01-26T00:50:11.249Z,8.20
2023-01-26T00:52:41.625Z,8.30
2023-01-26T00:55:10.648Z,8.30
2023-01-26T00:57:39.353Z,8.30
2023-01-26T01:00:11.049Z,8.30
2023-01-26T01:02:39.922Z,8.30
2023-01-26T01:05:09.463Z,8.40
2023-01-26T01:07:38.167Z,8.30
2023-01-26T01:10:09.837Z,8.40
2023-01-26T01:12:38.924Z,8.40
2023-01-26T01:15:09.047Z,8.30
2023-01-26T01:17:38.096Z,8.20
2023-01-26T01:20:10.145Z,8.20
2023-01-26T01:22:39.570Z,8.20
2023-01-26T01:25:10.587Z,8.30
2023-01-26T01:27:39.486Z,8.40
2023-01-26T01:30:10.108Z,8.40
2023-01-26T01:32:40.232Z,8.30
2023-01-26T01:35:09.708Z,8.30
2023-01-26T01:37:38.479Z,8.30
2023-01-26T01:40:13.782Z,8.40
2023-01-26T01:42:48.500Z,8.40
2023-01-26T01:45:42.002Z,8.40
2023-01-26T01:48:18.980Z,8.40
2023-01-26T01:50:50.078Z,8.40
2023-01-26T01:53:25.247Z,8.50
2023-01-26T01:55:59.706Z,8.40
2023-01-26T01:58:29.963Z,8.40
2023-01-26T02:00:59.321Z,8.40
2023-01-26T02:03:29.930Z,8.30
2023-01-26T02:06:03.058Z,8.40
2023-01-26T02:08:35.695Z,8.20
2023-01-26T02:11:09.741Z,8.20
2023-01-26T02:13:40.254Z,8.20
2023-01-26T02:16:09.074Z,8.10
2023-01-26T02:18:37.935Z,8.10
2023-01-26T02:21:08.385Z,8.20
2023-01-26T02:23:46.225Z,8.20
2023-01-26T02:26:17.549Z,8.10
2023-01-26T02:28:47.467Z,8.10
2023-01-26T02:31:17.476Z,8.10
2023-01-26T02:33:46.503Z,8.10
2023-01-26T02:36:21.106Z,8.00
2023-01-26T02:38:56.850Z,8.10
2023-01-26T02:41:45.021Z,8.10
2023-01-26T02:44:15.955Z,8.20
2023-01-26T02:46:44.825Z,8.10
2023-01-26T02:49:30.663Z,8.10
2023-01-26T02:51:59.713Z,8.00
2023-01-26T02:54:45.597Z,8.10
2023-01-26T02:57:15.768Z,8.00
2023-01-26T02:59:44.479Z,8.10
2023-01-26T03:02:13.566Z,8.00
2023-01-26T03:04:42.846Z,8.00
2023-01-26T03:07:11.846Z,7.90
2023-01-26T03:09:40.553Z,8.00
2023-01-26T03:12:09.394Z,8.00
2023-01-26T03:14:39.491Z,7.90
2023-01-26T03:17:08.293Z,7.90
2023-01-26T03:19:54.198Z,7.90
2023-01-26T03:22:40.097Z,7.80
2023-01-26T03:25:28.092Z,7.70
2023-01-26T03:27:56.883Z,7.80
2023-01-26T03:30:26.954Z,7.80
2023-01-26T03:32:55.650Z,7.80
2023-01-26T03:35:24.498Z,7.80
2023-01-26T03:37:54.969Z,7.80
2023-01-26T03:40:41.072Z,7.70
2023-01-26T03:43:27.700Z,7.80
2023-01-26T03:46:15.360Z,7.80
2023-01-26T03:49:01.306Z,7.90
2023-01-26T03:51:47.187Z,7.90
2023-01-26T03:54:33.508Z,7.80
2023-01-26T03:57:02.153Z,7.80
2023-01-26T03:59:39.099Z,7.90
2023-01-26T04:02:28.177Z,7.90
2023-01-26T04:05:13.968Z,7.90
2023-01-26T04:08:00.118Z,7.90
2023-01-26T04:10:29.468Z,7.80
2023-01-26T04:13:26.127Z,7.80
2023-01-26T04:16:12.071Z,7.80
2023-01-26T04:18:59.575Z,7.80
2023-01-26T04:21:28.992Z,7.80
2023-01-26T04:23:59.078Z,7.80
2023-01-26T04:26:34.872Z,7.80
2023-01-26T04:29:03.938Z,7.50
2023-01-26T04:31:32.988Z,7.60
2023-01-26T04:34:04.864Z,7.60
2023-01-26T04:36:33.911Z,7.60
2023-01-26T04:39:02.708Z,7.60
2023-01-26T04:41:32.328Z,7.70
2023-01-26T04:44:01.082Z,7.70
2023-01-26T04:46:29.780Z,7.90
2023-01-26T04:48:58.528Z,7.90
2023-01-26T04:51:29.315Z,7.90
2023-01-26T04:53:58.322Z,7.90
2023-01-26T04:56:28.576Z,7.80
2023-01-26T04:59:00.013Z,7.80
2023-01-26T05:01:29.448Z,7.80
2023-01-26T05:04:02.039Z,7.80
2023-01-26T05:06:32.395Z,7.90
2023-01-26T05:09:01.143Z,8.10
2023-01-26T05:11:29.909Z,8.10
2023-01-26T05:13:58.702Z,8.10
2023-01-26T05:16:28.167Z,8.10
2023-01-26T05:18:56.911Z,8.20
2023-01-26T05:21:27.523Z,8.20
2023-01-26T05:23:57.673Z,8.20
2023-01-26T05:26:26.514Z,8.20
2023-01-26T05:28:55.287Z,8.20
2023-01-26T05:31:24.052Z,8.20
2023-01-26T05:33:52.971Z,8.30
2023-01-26T05:36:21.679Z,8.10
2023-01-26T05:38:50.474Z,8.20
2023-01-26T05:41:20.527Z,8.20
2023-01-26T05:43:49.236Z,8.20
2023-01-26T05:46:17.938Z,8.30
2023-01-26T05:48:46.654Z,8.30
2023-01-26T05:51:15.435Z,8.30
2023-01-26T05:53:44.137Z,8.30
2023-01-26T05:56:12.880Z,8.40
2023-01-26T05:58:43.024Z,8.30
2023-01-26T06:01:11.742Z,8.40
2023-01-26T06:03:40.529Z,8.40
2023-01-26T06:06:09.283Z,8.50
2023-01-26T06:08:37.945Z,8.50
2023-01-26T06:11:06.891Z,8.40
2023-01-26T06:13:35.659Z,8.50
2023-01-26T06:16:06.031Z,8.40
2023-01-26T06:18:34.776Z,8.40
2023-01-26T06:21:03.547Z,8.40
2023-01-26T06:23:32.291Z,8.40
2023-01-26T06:26:01.374Z,8.40
2023-01-26T06:28:31.695Z,8.50
2023-01-26T06:31:03.716Z,8.40
2023-01-26T06:33:36.822Z,8.40
2023-01-26T06:36:07.699Z,8.40
2023-01-26T06:38:36.631Z,8.50
2023-01-26T06:41:07.411Z,8.50
2023-01-26T06:43:37.273Z,8.40
2023-01-26T06:46:07.339Z,8.40
2023-01-26T06:48:38.929Z,8.40
2023-01-26T06:51:47.718Z,8.50
2023-01-26T06:54:16.804Z,8.50
2023-01-26T06:56:45.892Z,8.60
2023-01-26T06:59:14.770Z,8.60
2023-01-26T07:01:47.295Z,8.60
2023-01-26T07:04:18.579Z,8.60
2023-01-26T07:06:47.306Z,8.50
2023-01-26T07:09:15.943Z,8.50
2023-01-26T07:11:44.708Z,8.60
2023-01-26T07:14:13.490Z,8.50
2023-01-26T07:16:42.219Z,8.40
2023-01-26T07:19:11.120Z,8.50
2023-01-26T07:21:41.134Z,8.60
2023-01-26T07:24:10.966Z,8.50
2023-01-26T07:26:39.718Z,8.40
2023-01-26T07:29:08.610Z,8.40
2023-01-26T07:31:37.915Z,8.40
2023-01-26T07:34:06.599Z,8.30
2023-01-26T07:36:35.354Z,8.30
2023-01-26T07:39:08.322Z,8.30
2023-01-26T07:41:37.482Z,8.30
2023-01-26T07:44:10.268Z,8.40
2023-01-26T07:46:40.098Z,8.60
2023-01-26T07:49:10.045Z,8.50
2023-01-26T07:51:39.672Z,8.60
2023-01-26T07:54:13.074Z,8.70
2023-01-26T07:56:41.770Z,8.80
2023-01-26T07:59:12.676Z,8.80
2023-01-26T08:01:41.441Z,8.90
2023-01-26T08:04:10.229Z,8.90
2023-01-26T08:06:38.960Z,8.90
2023-01-26T08:09:09.163Z,8.80
2023-01-26T08:11:38.119Z,8.90
2023-01-26T08:14:06.860Z,8.80
2023-01-26T08:16:35.405Z,8.80
2023-01-26T08:19:15.671Z,8.70
2023-01-26T08:21:44.205Z,8.70
2023-01-26T08:24:14.803Z,8.70
2023-01-26T08:26:43.508Z,8.60
2023-01-26T08:29:12.211Z,8.60
2023-01-26T08:31:40.829Z,8.60
2023-01-26T08:34:09.179Z,8.60
2023-01-26T08:36:37.767Z,8.60
2023-01-26T08:39:06.460Z,8.60
2023-01-26T08:41:36.908Z,8.60
2023-01-26T08:44:05.903Z,8.60
2023-01-26T08:46:34.900Z,8.60
2023-01-26T08:49:03.622Z,8.70
2023-01-26T08:51:32.480Z,8.70
2023-01-26T08:54:01.197Z,8.60
2023-01-26T08:56:29.874Z,8.60
2023-01-26T08:58:59.944Z,8.60
2023-01-26T09:01:28.731Z,8.60
2023-01-26T09:03:58.415Z,8.60
2023-01-26T09:06:28.433Z,8.70
2023-01-26T09:08:57.609Z,8.70
2023-01-26T09:11:27.039Z,8.70
2023-01-26T09:13:56.690Z,8.70
2023-01-26T09:16:26.803Z,8.80
2023-01-26T09:18:55.744Z,8.80
2023-01-26T09:21:25.083Z,8.80
2023-01-26T09:23:53.981Z,8.80
2023-01-26T09:26:22.728Z,8.80
2023-01-26T09:28:52.738Z,8.70
2023-01-26T09:31:21.656Z,8.70
2023-01-26T09:33:52.148Z,8.70
2023-01-26T09:36:21.300Z,8.80
2023-01-26T09:38:51.204Z,8.70
2023-01-26T09:41:34.577Z,8.60
2023-01-26T09:44:09.528Z,8.60
2023-01-26T09:46:49.770Z,8.50
2023-01-26T09:49:25.669Z,8.40
2023-01-26T09:52:01.201Z,8.50
2023-01-26T09:54:35.757Z,8.50
2023-01-26T09:57:14.074Z,8.40
2023-01-26T09:59:49.989Z,8.50
2023-01-26T10:02:27.073Z,8.40
2023-01-26T10:05:01.607Z,8.40
2023-01-26T10:07:30.442Z,8.30
2023-01-26T10:09:59.511Z,8.20
2023-01-26T10:12:32.127Z,8.20
2023-01-26T10:15:06.167Z,8.20
2023-01-26T10:17:37.954Z,8.20
2023-01-26T10:20:19.138Z,8.30
2023-01-26T10:22:51.115Z,8.30
2023-01-26T10:25:23.796Z,8.30
2023-01-26T10:27:54.427Z,8.30
2023-01-26T10:30:23.420Z,8.40
2023-01-26T10:32:53.922Z,8.50
2023-01-26T10:35:26.238Z,8.50
2023-01-26T10:37:56.219Z,8.60
2023-01-26T10:40:24.925Z,8.60
2023-01-26T10:42:58.540Z,8.60
2023-01-26T10:45:30.362Z,8.70
2023-01-26T10:48:18.795Z,8.60
2023-01-26T10:50:49.527Z,8.50
2023-01-26T10:53:20.128Z,8.50
2023-01-26T10:56:02.191Z,8.40
2023-01-26T10:58:45.558Z,8.30
2023-01-26T11:01:16.141Z,8.40
2023-01-26T11:04:06.741Z,8.40
2023-01-26T11:06:37.249Z,8.60
2023-01-26T11:09:19.432Z,8.50
2023-01-26T11:12:03.055Z,8.60
2023-01-26T11:14:33.003Z,8.50
2023-01-26T11:17:10.211Z,8.40
2023-01-26T11:19:57.753Z,8.40
2023-01-26T11:22:34.903Z,8.30
2023-01-26T11:25:14.476Z,8.40
2023-01-26T11:27:53.259Z,8.40
2023-01-26T11:30:42.957Z,8.30
2023-01-26T11:33:19.901Z,8.30
2023-01-26T11:35:56.125Z,8.30
2023-01-26T11:38:38.343Z,8.30
2023-01-26T11:41:35.771Z,8.20
2023-01-26T11:44:43.085Z,8.20
2023-01-26T11:47:35.774Z,8.20
2023-01-26T11:50:18.894Z,8.30
2023-01-26T11:52:59.214Z,8.20
2023-01-26T11:55:44.246Z,8.20
2023-01-26T11:58:26.115Z,8.30
2023-01-26T12:00:57.467Z,8.30
2023-01-26T12:03:32.219Z,8.20
2023-01-26T12:06:06.661Z,8.20
2023-01-26T12:08:40.839Z,8.30
2023-01-26T12:11:25.376Z,8.30
2023-01-26T12:14:09.003Z,8.30
2023-01-26T12:16:48.088Z,8.30
2023-01-26T12:19:31.787Z,8.30
2023-01-26T12:22:07.391Z,8.30
2023-01-26T12:27:36.217Z,8.30
2023-01-26T12:30:14.126Z,8.30
2023-01-26T12:32:42.794Z,8.20
2023-01-26T12:35:13.061Z,8.30
2023-01-26T12:38:16.609Z,8.40
2023-01-26T12:40:56.099Z,8.30
2023-01-26T12:43:49.458Z,8.30
2023-01-26T12:46:19.726Z,8.30
2023-01-26T12:48:51.960Z,8.40
2023-01-26T12:51:21.665Z,8.30
2023-01-26T12:53:52.544Z,8.40
2023-01-26T12:56:23.057Z,8.30
2023-01-26T12:58:53.804Z,8.30
2023-01-26T13:01:23.935Z,8.20
2023-01-26T13:03:54.263Z,8.20
2023-01-26T13:06:23.558Z,8.20
2023-01-26T13:08:54.805Z,8.10
2023-01-26T13:11:46.187Z,8.20
2023-01-26T13:14:29.459Z,8.20
2023-01-26T13:16:58.778Z,8.20
2023-01-26T13:19:36.783Z,8.20
2023-01-26T13:22:05.333Z,8.20
2023-01-26T13:24:43.435Z,8.10
2023-01-26T13:27:26.614Z,8.00
2023-01-26T13:29:56.817Z,8.00
2023-01-26T13:32:52.099Z,7.90
2023-01-26T13:35:23.638Z,8.00
2023-01-26T13:37:59.336Z,8.00
2023-01-26T13:40:32.278Z,8.00
2023-01-26T13:43:14.575Z,8.00
2023-01-26T13:46:02.405Z,8.00
2023-01-26T13:48:42.192Z,8.00
2023-01-26T13:51:14.991Z,7.80
2023-01-26T13:53:48.165Z,7.80
2023-01-26T13:56:26.608Z,7.90
2023-01-26T13:59:04.232Z,7.90
2023-01-26T14:01:35.035Z,7.90
2023-01-26T14:04:08.252Z,7.90
2023-01-26T14:06:38.572Z,7.80
2023-01-26T14:09:12.792Z,7.80
2023-01-26T14:11:41.950Z,7.80
2023-01-26T14:14:24.447Z,7.80
2023-01-26T14:16:54.988Z,7.80
2023-01-26T14:19:24.937Z,7.90
2023-01-26T14:21:55.697Z,7.80
2023-01-26T14:24:32.518Z,7.80
2023-01-26T14:27:01.760Z,7.80
2023-01-26T14:29:31.926Z,7.80
2023-01-26T14:32:03.240Z,7.80
2023-01-26T14:34:33.005Z,7.90
2023-01-26T14:37:13.542Z,7.80
2023-01-26T14:39:44.972Z,7.70
2023-01-26T14:42:15.608Z,7.80
2023-01-26T14:44:44.617Z,7.80
2023-01-26T14:47:20.861Z,7.80
2023-01-26T14:49:55.715Z,7.80
2023-01-26T14:52:26.665Z,7.70
2023-01-26T14:54:57.575Z,7.70
2023-01-26T14:57:28.159Z,7.70
2023-01-26T14:59:58.996Z,7.70
2023-01-26T15:02:37.501Z,7.70
2023-01-26T15:05:13.971Z,7.70
2023-01-26T15:07:44.922Z,7.80
2023-01-26T15:10:36.352Z,7.80
2023-01-26T15:13:09.484Z,7.80
2023-01-26T15:15:39.900Z,7.80
2023-01-26T15:18:20.934Z,7.80
2023-01-26T15:21:00.580Z,7.70
2023-01-26T15:23:31.841Z,7.70
2023-01-26T15:26:08.479Z,7.60
2023-01-26T15:28:38.707Z,7.60
2023-01-26T15:31:08.522Z,7.60
2023-01-26T15:33:50.783Z,7.70
2023-01-26T15:36:32.666Z,7.70
2023-01-26T15:39:04.273Z,7.70
2023-01-26T15:41:33.040Z,7.70
2023-01-26T15:44:01.720Z,7.70
2023-01-26T15:46:30.655Z,7.80
2023-01-26T15:49:00.826Z,7.80
2023-01-26T15:51:29.534Z,7.90
2023-01-26T15:53:58.283Z,7.90
2023-01-26T15:56:27.016Z,8.00
2023-01-26T15:58:55.697Z,7.90
2023-01-26T16:01:25.099Z,7.80
2023-01-26T16:03:53.770Z,7.80
2023-01-26T16:06:28.381Z,7.70
2023-01-26T16:08:58.022Z,7.70
2023-01-26T16:11:31.339Z,7.70
2023-01-26T16:14:03.913Z,7.70
2023-01-26T16:16:34.117Z,7.70
2023-01-26T16:19:03.065Z,7.70
2023-01-26T16:21:40.085Z,7.60
2023-01-26T16:24:12.168Z,7.70
2023-01-26T16:26:41.129Z,7.70
2023-01-26T16:29:10.016Z,7.70
2023-01-26T16:31:38.568Z,7.70
2023-01-26T16:34:07.376Z,7.70
2023-01-26T16:36:37.501Z,7.70
2023-01-26T16:39:06.784Z,7.70
2023-01-26T16:41:35.506Z,7.70
2023-01-26T16:44:04.819Z,7.70
2023-01-26T16:46:33.826Z,7.50
2023-01-26T16:49:02.521Z,7.50
2023-01-26T16:51:32.268Z,7.40
2023-01-26T16:54:02.291Z,7.40
2023-01-26T16:56:32.373Z,7.30
2023-01-26T16:59:01.301Z,7.40
2023-01-26T17:01:32.760Z,7.30
2023-01-26T17:04:02.375Z,7.20
2023-01-26T17:06:31.236Z,7.30
2023-01-26T17:08:59.685Z,7.30
2023-01-26T17:11:30.094Z,7.20
2023-01-26T17:13:59.376Z,7.20
2023-01-26T17:16:31.788Z,7.20
2023-01-26T17:19:00.251Z,7.10
2023-01-26T17:21:28.689Z,7.10
2023-01-26T17:23:59.003Z,7.10
2023-01-26T17:26:27.494Z,7.10
2023-01-26T17:28:57.361Z,7.00
2023-01-26T17:31:26.090Z,7.10
2023-01-26T17:33:55.700Z,7.00
2023-01-26T17:36:24.222Z,7.00
2023-01-26T17:38:52.659Z,7.10
2023-01-26T17:41:21.049Z,7.10
2023-01-26T17:43:51.218Z,7.10
2023-01-26T17:46:21.914Z,7.00
2023-01-26T17:48:50.969Z,7.00
2023-01-26T17:51:20.004Z,7.00
2023-01-26T17:53:50.312Z,7.00
2023-01-26T17:56:19.626Z,6.90
2023-01-26T17:58:48.926Z,6.90
2023-01-26T18:01:17.519Z,6.90
2023-01-26T18:03:47.267Z,6.80
2023-01-26T18:06:15.777Z,6.80
2023-01-26T18:08:44.175Z,6.90
2023-01-26T18:11:14.768Z,6.90
2023-01-26T18:13:43.349Z,6.90
2023-01-26T18:16:13.580Z,6.80
2023-01-26T18:18:42.017Z,6.90
2023-01-26T18:21:16.897Z,6.80
2023-01-26T18:23:46.054Z,6.70
2023-01-26T18:26:14.454Z,6.80
2023-01-26T18:28:43.824Z,6.90
2023-01-26T18:31:13.928Z,6.80
2023-01-26T18:33:43.016Z,6.80
2023-01-26T18:36:14.241Z,6.80
2023-01-26T18:38:52.185Z,6.90
2023-01-26T18:41:23.276Z,6.90
2023-01-26T18:43:52.751Z,7.00
2023-01-26T18:46:24.330Z,7.00
2023-01-26T18:48:53.883Z,7.10
2023-01-26T18:51:23.139Z,7.00
2023-01-26T18:53:53.822Z,7.00
2023-01-26T18:56:22.554Z,6.90
2023-01-26T18:58:53.045Z,6.90
2023-01-26T19:01:22.793Z,6.90
2023-01-26T19:03:55.153Z,6.90
2023-01-26T19:06:25.623Z,6.90
2023-01-26T19:08:58.876Z,6.90
2023-01-26T19:11:28.821Z,6.90
2023-01-26T19:13:57.684Z,6.90
2023-01-26T19:16:26.968Z,6.90
2023-01-26T19:18:56.279Z,6.90
2023-01-26T19:21:26.091Z,6.80
2023-01-26T19:23:58.702Z,6.70
2023-01-26T19:26:30.809Z,6.80
2023-01-26T19:29:00.043Z,6.80
2023-01-26T19:31:29.345Z,6.90
2023-01-26T19:33:59.883Z,6.80
2023-01-26T19:36:30.527Z,6.90
2023-01-26T19:39:00.623Z,6.80
2023-01-26T19:41:29.426Z,6.90
2023-01-26T19:43:58.281Z,6.90
2023-01-26T19:46:26.963Z,6.90
2023-01-26T19:48:55.714Z,7.00
2023-01-26T19:51:26.308Z,7.00
2023-01-26T19:53:57.546Z,7.00
2023-01-26T19:56:29.292Z,7.00
2023-01-26T19:58:59.170Z,7.00
2023-01-26T20:01:29.502Z,7.00
2023-01-26T20:04:00.345Z,7.10
2023-01-26T20:06:31.503Z,7.00
2023-01-26T20:09:01.161Z,7.10
2023-01-26T20:11:31.527Z,7.00
2023-01-26T20:14:02.148Z,7.00
2023-01-26T20:16:31.686Z,7.00
2023-01-26T20:19:00.840Z,7.10
2023-01-26T20:21:30.230Z,7.10
2023-01-26T20:24:05.319Z,7.10
2023-01-26T20:26:36.488Z,7.00
2023-01-26T20:29:05.841Z,7.00
2023-01-26T20:31:34.730Z,7.00
2023-01-26T20:34:03.457Z,7.00
2023-01-26T20:36:33.057Z,7.10
2023-01-26T20:39:01.867Z,7.10
2023-01-26T20:41:32.000Z,7.10
2023-01-26T20:44:05.299Z,7.10
2023-01-26T20:46:36.067Z,7.00
2023-01-26T20:49:05.737Z,7.00
2023-01-26T20:51:38.219Z,7.00
2023-01-26T20:54:08.684Z,7.00
2023-01-26T20:56:38.290Z,7.00
2023-01-26T20:59:08.783Z,7.00
2023-01-26T21:01:37.569Z,7.00
2023-01-26T21:04:07.137Z,7.10
2023-01-26T21:06:37.707Z,7.20
2023-01-26T21:09:06.792Z,7.10
2023-01-26T21:11:36.521Z,7.10
2023-01-26T21:14:07.197Z,7.10
2023-01-26T21:16:36.142Z,7.00
2023-01-26T21:19:04.939Z,7.10
2023-01-26T21:21:34.233Z,7.10
2023-01-26T21:24:03.124Z,7.00
2023-01-26T21:26:32.844Z,7.00
2023-01-26T21:29:01.687Z,6.90
2023-01-26T21:31:33.900Z,6.90
2023-01-26T21:34:02.725Z,6.80
2023-01-26T21:36:32.814Z,6.70
2023-01-26T21:39:02.085Z,6.70
2023-01-26T21:41:50.167Z,6.70
2023-01-26T21:44:20.109Z,6.70
2023-01-26T21:46:50.777Z,6.70
2023-01-26T21:49:20.282Z,6.70
2023-01-26T21:52:05.879Z,6.80
2023-01-26T21:54:35.119Z,6.80
2023-01-26T21:57:25.488Z,6.70
2023-01-26T21:59:53.302Z,6.60
2023-01-26T22:02:24.068Z,6.70
2023-01-26T22:04:53.301Z,6.80
2023-01-26T22:07:22.119Z,6.60
2023-01-26T22:09:50.800Z,6.60
2023-01-26T22:12:28.250Z,6.70
2023-01-26T22:14:56.854Z,6.60
2023-01-26T22:17:26.979Z,6.60
2023-01-26T22:19:56.291Z,6.60
2023-01-26T22:22:25.378Z,6.60
2023-01-26T22:24:54.023Z,6.50
2023-01-26T22:27:22.529Z,6.40
2023-01-26T22:29:50.898Z,6.40
2023-01-26T22:32:19.469Z,6.40
2023-01-26T22:34:49.664Z,6.40
2023-01-26T22:37:18.367Z,6.40
2023-01-26T22:39:49.047Z,6.40
2023-01-26T22:42:19.225Z,6.30
2023-01-26T22:44:47.688Z,6.30
2023-01-26T22:47:16.315Z,6.10
2023-01-26T22:49:45.463Z,6.20
2023-01-26T22:52:15.572Z,6.20
2023-01-26T22:54:44.308Z,6.30
2023-01-26T22:57:12.802Z,6.20
2023-01-26T22:59:42.160Z,6.10
2023-01-26T23:02:10.767Z,6.10
2023-01-26T23:04:39.279Z,6.10
2023-01-26T23:07:07.925Z,6.20
2023-01-26T23:09:37.982Z,6.20
2023-01-26T23:12:06.577Z,6.20
2023-01-26T23:14:35.247Z,6.10
2023-01-26T23:17:04.835Z,6.00
2023-01-26T23:19:33.738Z,6.10
2023-01-26T23:22:02.118Z,6.10
2023-01-26T23:24:30.541Z,5.90
2023-01-26T23:27:00.407Z,6.10
2023-01-26T23:29:28.799Z,5.90
2023-01-26T23:31:57.162Z,5.90
2023-01-26T23:34:25.675Z,6.00
2023-01-26T23:36:54.092Z,6.00
2023-01-26T23:39:22.783Z,6.00
2023-01-26T23:41:51.362Z,6.00
2023-01-26T23:44:21.380Z,5.90
2023-01-26T23:46:49.948Z,5.80
2023-01-26T23:49:18.719Z,5.90
2023-01-26T23:51:47.532Z,5.90
2023-01-26T23:54:16.430Z,5.90
2023-01-26T23:56:45.154Z,6.00
2023-01-26T23:59:13.697Z,5.90
